sensor_id;sensor_type;location;lat;lon;timestamp;P1;durP1;ratioP1;P2;durP2;ratioP2
71475;SDS011;59286;59.274;17.974;2022-10-30T00:00:28;1.88;;;0.88;;
71475;SDS011;59286;59.274;17.974;2022-10-30T00:02:54;2.40;;;0.88;;
71475;SDS011;59286;59.274;17.974;2022-10-30T00:05:19;4.30;;;0.75;;
71475;SDS011;59286;59.274;17.974;2022-10-30T00:07:45;1.58;;;0.60;;
71475;SDS011;59286;59.274;17.974;2022-10-30T00:10:11;3.95;;;0.95;;
71475;SDS011;59286;59.274;17.974;2022-10-30T00:12:37;0.93;;;0.50;;
71475;SDS011;59286;59.274;17.974;2022-10-30T00:15:03;2.22;;;0.70;;
71475;SDS011;59286;59.274;17.974;2022-10-30T00:17:28;7.07;;;0.63;;
71475;SDS011;59286;59.274;17.974;2022-10-30T00:19:54;5.85;;;0.98;;
71475;SDS011;59286;59.274;17.974;2022-10-30T00:22:19;2.85;;;0.55;;
71475;SDS011;59286;59.274;17.974;2022-10-30T00:24:46;0.85;;;0.50;;
71475;SDS011;59286;59.274;17.974;2022-10-30T00:27:11;0.70;;;0.30;;
71475;SDS011;59286;59.274;17.974;2022-10-30T00:29:37;3.22;;;0.60;;
71475;SDS011;59286;59.274;17.974;2022-10-30T00:32:02;2.38;;;0.60;;
71475;SDS011;59286;59.274;17.974;2022-10-30T00:34:28;2.40;;;0.50;;
71475;SDS011;59286;59.274;17.974;2022-10-30T00:36:53;1.90;;;0.50;;
71475;SDS011;59286;59.274;17.974;2022-10-30T00:39:18;2.95;;;0.93;;
71475;SDS011;59286;59.274;17.974;2022-10-30T00:41:44;3.50;;;0.63;;
71475;SDS011;59286;59.274;17.974;2022-10-30T00:52:17;2.30;;;0.60;;
71475;SDS011;59286;59.274;17.974;2022-10-30T00:54:45;4.30;;;1.40;;
71475;SDS011;59286;59.274;17.974;2022-10-30T00:57:10;4.90;;;0.85;;
71475;SDS011;59286;59.274;17.974;2022-10-30T00:59:36;2.95;;;1.10;;
71475;SDS011;59286;59.274;17.974;2022-10-30T01:02:02;1.73;;;0.80;;
71475;SDS011;59286;59.274;17.974;2022-10-30T01:04:28;3.92;;;0.60;;
71475;SDS011;59286;59.274;17.974;2022-10-30T01:06:57;1.95;;;0.70;;
71475;SDS011;59286;59.274;17.974;2022-10-30T01:09:29;3.90;;;0.65;;
71475;SDS011;59286;59.274;17.974;2022-10-30T01:11:55;2.13;;;0.73;;
71475;SDS011;59286;59.274;17.974;2022-10-30T01:14:22;2.97;;;0.77;;
71475;SDS011;59286;59.274;17.974;2022-10-30T01:33:22;1.17;;;0.70;;
71475;SDS011;59286;59.274;17.974;2022-10-30T01:36:03;2.65;;;0.90;;
71475;SDS011;59286;59.274;17.974;2022-10-30T01:38:46;3.85;;;0.70;;
71475;SDS011;59286;59.274;17.974;2022-10-30T01:41:16;3.80;;;1.08;;
71475;SDS011;59286;59.274;17.974;2022-10-30T01:43:42;5.90;;;0.93;;
71475;SDS011;59286;59.274;17.974;2022-10-30T01:54:28;3.85;;;0.85;;
71475;SDS011;59286;59.274;17.974;2022-10-30T01:57:11;2.17;;;0.60;;
71475;SDS011;59286;59.274;17.974;2022-10-30T02:02:21;3.20;;;0.85;;
71475;SDS011;59286;59.274;17.974;2022-10-30T02:04:47;4.38;;;0.85;;
71475;SDS011;59286;59.274;17.974;2022-10-30T02:07:13;1.63;;;0.70;;
71475;SDS011;59286;59.274;17.974;2022-10-30T02:09:39;4.80;;;0.63;;
71475;SDS011;59286;59.274;17.974;2022-10-30T02:12:04;4.50;;;0.80;;
71475;SDS011;59286;59.274;17.974;2022-10-30T02:14:33;3.53;;;1.27;;
71475;SDS011;59286;59.274;17.974;2022-10-30T02:17:03;1.80;;;0.73;;
71475;SDS011;59286;59.274;17.974;2022-10-30T02:19:31;2.75;;;0.88;;
71475;SDS011;59286;59.274;17.974;2022-10-30T02:21:56;1.90;;;0.85;;
71475;SDS011;59286;59.274;17.974;2022-10-30T02:24:22;5.47;;;0.70;;
71475;SDS011;59286;59.274;17.974;2022-10-30T02:26:47;1.95;;;0.55;;
71475;SDS011;59286;59.274;17.974;2022-10-30T02:29:13;2.08;;;0.73;;
71475;SDS011;59286;59.274;17.974;2022-10-30T02:31:38;1.88;;;0.82;;
71475;SDS011;59286;59.274;17.974;2022-10-30T02:34:03;5.22;;;0.90;;
71475;SDS011;59286;59.274;17.974;2022-10-30T02:36:29;2.53;;;0.80;;
71475;SDS011;59286;59.274;17.974;2022-10-30T02:38:54;2.25;;;0.70;;
71475;SDS011;59286;59.274;17.974;2022-10-30T02:41:20;2.05;;;0.70;;
71475;SDS011;59286;59.274;17.974;2022-10-30T02:43:46;1.30;;;0.50;;
71475;SDS011;59286;59.274;17.974;2022-10-30T02:46:12;1.90;;;0.50;;
71475;SDS011;59286;59.274;17.974;2022-10-30T02:48:37;1.13;;;0.40;;
71475;SDS011;59286;59.274;17.974;2022-10-30T02:51:03;2.50;;;0.50;;
71475;SDS011;59286;59.274;17.974;2022-10-30T02:53:28;1.88;;;0.60;;
71475;SDS011;59286;59.274;17.974;2022-10-30T02:55:54;2.03;;;0.63;;
71475;SDS011;59286;59.274;17.974;2022-10-30T02:58:20;1.20;;;0.65;;
71475;SDS011;59286;59.274;17.974;2022-10-30T03:00:46;2.75;;;0.55;;
71475;SDS011;59286;59.274;17.974;2022-10-30T03:03:11;5.43;;;0.90;;
71475;SDS011;59286;59.274;17.974;2022-10-30T03:05:36;3.25;;;0.70;;
71475;SDS011;59286;59.274;17.974;2022-10-30T03:08:02;2.63;;;0.50;;
71475;SDS011;59286;59.274;17.974;2022-10-30T03:10:27;1.30;;;0.60;;
71475;SDS011;59286;59.274;17.974;2022-10-30T03:12:53;2.13;;;0.70;;
71475;SDS011;59286;59.274;17.974;2022-10-30T03:15:18;3.53;;;0.63;;
71475;SDS011;59286;59.274;17.974;2022-10-30T03:17:44;1.25;;;0.57;;
71475;SDS011;59286;59.274;17.974;2022-10-30T03:20:10;2.55;;;0.70;;
71475;SDS011;59286;59.274;17.974;2022-10-30T03:22:36;1.73;;;0.70;;
71475;SDS011;59286;59.274;17.974;2022-10-30T03:25:01;3.80;;;0.85;;
71475;SDS011;59286;59.274;17.974;2022-10-30T03:27:26;2.53;;;0.55;;
71475;SDS011;59286;59.274;17.974;2022-10-30T03:29:52;3.33;;;0.60;;
71475;SDS011;59286;59.274;17.974;2022-10-30T03:32:17;1.23;;;0.57;;
71475;SDS011;59286;59.274;17.974;2022-10-30T03:34:43;2.22;;;0.60;;
71475;SDS011;59286;59.274;17.974;2022-10-30T03:37:08;1.10;;;0.60;;
71475;SDS011;59286;59.274;17.974;2022-10-30T03:39:34;2.80;;;0.73;;
71475;SDS011;59286;59.274;17.974;2022-10-30T03:41:59;1.50;;;0.55;;
71475;SDS011;59286;59.274;17.974;2022-10-30T03:44:24;4.38;;;0.73;;
71475;SDS011;59286;59.274;17.974;2022-10-30T03:46:50;2.33;;;0.50;;
71475;SDS011;59286;59.274;17.974;2022-10-30T03:49:15;1.75;;;0.50;;
71475;SDS011;59286;59.274;17.974;2022-10-30T03:51:41;2.17;;;0.50;;
71475;SDS011;59286;59.274;17.974;2022-10-30T03:54:06;0.90;;;0.50;;
71475;SDS011;59286;59.274;17.974;2022-10-30T03:56:31;1.42;;;0.60;;
71475;SDS011;59286;59.274;17.974;2022-10-30T03:58:57;0.82;;;0.60;;
71475;SDS011;59286;59.274;17.974;2022-10-30T04:01:22;3.83;;;0.80;;
71475;SDS011;59286;59.274;17.974;2022-10-30T04:03:47;2.90;;;0.60;;
71475;SDS011;59286;59.274;17.974;2022-10-30T04:06:13;4.70;;;0.80;;
71475;SDS011;59286;59.274;17.974;2022-10-30T04:08:38;3.33;;;0.60;;
71475;SDS011;59286;59.274;17.974;2022-10-30T04:11:04;2.80;;;0.70;;
71475;SDS011;59286;59.274;17.974;2022-10-30T04:13:29;1.77;;;0.70;;
71475;SDS011;59286;59.274;17.974;2022-10-30T04:15:55;1.30;;;0.70;;
71475;SDS011;59286;59.274;17.974;2022-10-30T04:18:22;1.98;;;1.25;;
71475;SDS011;59286;59.274;17.974;2022-10-30T04:20:47;4.68;;;0.82;;
71475;SDS011;59286;59.274;17.974;2022-10-30T04:23:16;3.30;;;0.60;;
71475;SDS011;59286;59.274;17.974;2022-10-30T04:25:43;1.52;;;0.60;;
71475;SDS011;59286;59.274;17.974;2022-10-30T04:28:09;1.65;;;0.60;;
71475;SDS011;59286;59.274;17.974;2022-10-30T04:30:36;2.63;;;0.50;;
71475;SDS011;59286;59.274;17.974;2022-10-30T04:33:06;4.47;;;0.63;;
71475;SDS011;59286;59.274;17.974;2022-10-30T04:35:34;1.23;;;0.50;;
71475;SDS011;59286;59.274;17.974;2022-10-30T04:38:04;2.15;;;0.60;;
71475;SDS011;59286;59.274;17.974;2022-10-30T04:40:32;0.93;;;0.50;;
71475;SDS011;59286;59.274;17.974;2022-10-30T04:42:59;2.53;;;0.77;;
71475;SDS011;59286;59.274;17.974;2022-10-30T04:45:27;1.92;;;0.70;;
71475;SDS011;59286;59.274;17.974;2022-10-30T04:47:52;1.65;;;0.80;;
71475;SDS011;59286;59.274;17.974;2022-10-30T04:50:25;1.95;;;0.70;;
71475;SDS011;59286;59.274;17.974;2022-10-30T04:52:57;1.65;;;0.80;;
71475;SDS011;59286;59.274;17.974;2022-10-30T04:55:23;4.97;;;0.82;;
71475;SDS011;59286;59.274;17.974;2022-10-30T04:57:48;3.40;;;0.77;;
71475;SDS011;59286;59.274;17.974;2022-10-30T05:00:14;1.55;;;0.77;;
71475;SDS011;59286;59.274;17.974;2022-10-30T05:02:40;1.52;;;0.60;;
71475;SDS011;59286;59.274;17.974;2022-10-30T05:05:05;1.55;;;0.57;;
71475;SDS011;59286;59.274;17.974;2022-10-30T05:07:31;0.88;;;0.50;;
71475;SDS011;59286;59.274;17.974;2022-10-30T05:09:56;2.05;;;0.65;;
71475;SDS011;59286;59.274;17.974;2022-10-30T05:12:21;1.00;;;0.60;;
71475;SDS011;59286;59.274;17.974;2022-10-30T05:14:47;0.77;;;0.40;;
71475;SDS011;59286;59.274;17.974;2022-10-30T05:17:12;2.38;;;0.60;;
71475;SDS011;59286;59.274;17.974;2022-10-30T05:19:38;1.50;;;0.63;;
71475;SDS011;59286;59.274;17.974;2022-10-30T05:22:03;3.83;;;0.43;;
71475;SDS011;59286;59.274;17.974;2022-10-30T05:24:29;1.98;;;0.60;;
71475;SDS011;59286;59.274;17.974;2022-10-30T05:26:54;1.27;;;0.60;;
71475;SDS011;59286;59.274;17.974;2022-10-30T05:29:20;1.45;;;0.60;;
71475;SDS011;59286;59.274;17.974;2022-10-30T05:31:45;1.33;;;0.47;;
71475;SDS011;59286;59.274;17.974;2022-10-30T05:34:10;2.75;;;0.52;;
71475;SDS011;59286;59.274;17.974;2022-10-30T05:36:36;1.92;;;0.50;;
71475;SDS011;59286;59.274;17.974;2022-10-30T05:39:01;3.17;;;0.60;;
71475;SDS011;59286;59.274;17.974;2022-10-30T05:41:27;1.88;;;0.60;;
71475;SDS011;59286;59.274;17.974;2022-10-30T05:43:53;4.15;;;0.52;;
71475;SDS011;59286;59.274;17.974;2022-10-30T05:46:18;1.58;;;0.52;;
71475;SDS011;59286;59.274;17.974;2022-10-30T05:48:44;1.38;;;0.55;;
71475;SDS011;59286;59.274;17.974;2022-10-30T05:51:09;2.53;;;0.55;;
71475;SDS011;59286;59.274;17.974;2022-10-30T05:53:35;3.40;;;0.68;;
71475;SDS011;59286;59.274;17.974;2022-10-30T05:56:00;4.65;;;0.73;;
71475;SDS011;59286;59.274;17.974;2022-10-30T05:58:25;1.83;;;0.68;;
71475;SDS011;59286;59.274;17.974;2022-10-30T06:00:51;2.15;;;0.60;;
71475;SDS011;59286;59.274;17.974;2022-10-30T06:03:16;3.15;;;0.60;;
71475;SDS011;59286;59.274;17.974;2022-10-30T06:05:45;2.25;;;0.57;;
71475;SDS011;59286;59.274;17.974;2022-10-30T06:08:11;4.07;;;0.60;;
71475;SDS011;59286;59.274;17.974;2022-10-30T06:10:36;1.85;;;0.80;;
71475;SDS011;59286;59.274;17.974;2022-10-30T06:13:05;3.30;;;0.50;;
71475;SDS011;59286;59.274;17.974;2022-10-30T06:15:54;2.05;;;0.50;;
71475;SDS011;59286;59.274;17.974;2022-10-30T06:18:34;3.22;;;0.57;;
71475;SDS011;59286;59.274;17.974;2022-10-30T06:21:15;1.50;;;0.70;;
71475;SDS011;59286;59.274;17.974;2022-10-30T06:23:42;1.77;;;0.82;;
71475;SDS011;59286;59.274;17.974;2022-10-30T06:26:08;2.42;;;0.60;;
71475;SDS011;59286;59.274;17.974;2022-10-30T06:28:36;2.25;;;0.85;;
71475;SDS011;59286;59.274;17.974;2022-10-30T06:31:02;2.65;;;1.00;;
71475;SDS011;59286;59.274;17.974;2022-10-30T06:33:27;2.83;;;0.90;;
71475;SDS011;59286;59.274;17.974;2022-10-30T06:35:54;2.50;;;1.00;;
71475;SDS011;59286;59.274;17.974;2022-10-30T06:38:19;3.00;;;0.70;;
71475;SDS011;59286;59.274;17.974;2022-10-30T06:40:45;2.53;;;0.60;;
71475;SDS011;59286;59.274;17.974;2022-10-30T06:43:12;4.15;;;0.57;;
71475;SDS011;59286;59.274;17.974;2022-10-30T06:45:37;4.10;;;0.68;;
71475;SDS011;59286;59.274;17.974;2022-10-30T06:48:03;2.75;;;0.60;;
71475;SDS011;59286;59.274;17.974;2022-10-30T06:50:29;1.23;;;0.65;;
71475;SDS011;59286;59.274;17.974;2022-10-30T06:52:55;4.18;;;0.55;;
71475;SDS011;59286;59.274;17.974;2022-10-30T06:55:20;1.25;;;0.60;;
71475;SDS011;59286;59.274;17.974;2022-10-30T06:57:51;1.73;;;0.60;;
71475;SDS011;59286;59.274;17.974;2022-10-30T07:00:18;3.92;;;0.60;;
71475;SDS011;59286;59.274;17.974;2022-10-30T07:02:43;3.67;;;0.60;;
71475;SDS011;59286;59.274;17.974;2022-10-30T07:05:09;1.63;;;0.60;;
71475;SDS011;59286;59.274;17.974;2022-10-30T07:07:34;1.48;;;0.63;;
71475;SDS011;59286;59.274;17.974;2022-10-30T07:10:00;2.75;;;0.70;;
71475;SDS011;59286;59.274;17.974;2022-10-30T07:12:25;0.80;;;0.50;;
71475;SDS011;59286;59.274;17.974;2022-10-30T07:14:51;1.95;;;0.60;;
71475;SDS011;59286;59.274;17.974;2022-10-30T07:17:16;1.73;;;0.50;;
71475;SDS011;59286;59.274;17.974;2022-10-30T07:19:42;1.35;;;0.40;;
71475;SDS011;59286;59.274;17.974;2022-10-30T07:22:07;2.15;;;0.52;;
71475;SDS011;59286;59.274;17.974;2022-10-30T07:24:35;4.75;;;0.63;;
71475;SDS011;59286;59.274;17.974;2022-10-30T07:27:03;1.15;;;0.50;;
71475;SDS011;59286;59.274;17.974;2022-10-30T07:29:34;0.57;;;0.40;;
71475;SDS011;59286;59.274;17.974;2022-10-30T07:32:00;3.20;;;0.60;;
71475;SDS011;59286;59.274;17.974;2022-10-30T07:34:25;1.17;;;0.47;;
71475;SDS011;59286;59.274;17.974;2022-10-30T07:36:51;3.88;;;0.60;;
71475;SDS011;59286;59.274;17.974;2022-10-30T07:39:16;2.88;;;0.50;;
71475;SDS011;59286;59.274;17.974;2022-10-30T07:41:42;2.80;;;0.77;;
71475;SDS011;59286;59.274;17.974;2022-10-30T07:44:07;3.25;;;0.65;;
71475;SDS011;59286;59.274;17.974;2022-10-30T07:46:32;1.85;;;0.60;;
71475;SDS011;59286;59.274;17.974;2022-10-30T07:48:58;2.03;;;0.60;;
71475;SDS011;59286;59.274;17.974;2022-10-30T07:51:23;2.42;;;0.63;;
71475;SDS011;59286;59.274;17.974;2022-10-30T07:53:49;4.43;;;0.68;;
71475;SDS011;59286;59.274;17.974;2022-10-30T07:56:14;1.10;;;0.50;;
71475;SDS011;59286;59.274;17.974;2022-10-30T07:58:40;1.38;;;0.43;;
71475;SDS011;59286;59.274;17.974;2022-10-30T08:01:05;3.28;;;0.60;;
71475;SDS011;59286;59.274;17.974;2022-10-30T08:03:31;0.93;;;0.60;;
71475;SDS011;59286;59.274;17.974;2022-10-30T08:05:56;1.00;;;0.60;;
71475;SDS011;59286;59.274;17.974;2022-10-30T08:08:22;1.10;;;0.50;;
71475;SDS011;59286;59.274;17.974;2022-10-30T08:10:50;2.72;;;0.50;;
71475;SDS011;59286;59.274;17.974;2022-10-30T08:13:15;0.70;;;0.35;;
71475;SDS011;59286;59.274;17.974;2022-10-30T08:15:42;2.13;;;0.52;;
71475;SDS011;59286;59.274;17.974;2022-10-30T08:18:07;1.13;;;0.65;;
71475;SDS011;59286;59.274;17.974;2022-10-30T08:20:33;1.55;;;0.50;;
71475;SDS011;59286;59.274;17.974;2022-10-30T08:22:58;3.08;;;0.80;;
71475;SDS011;59286;59.274;17.974;2022-10-30T08:25:27;2.92;;;0.60;;
71475;SDS011;59286;59.274;17.974;2022-10-30T08:30:24;2.10;;;0.50;;
71475;SDS011;59286;59.274;17.974;2022-10-30T08:32:55;2.80;;;0.60;;
71475;SDS011;59286;59.274;17.974;2022-10-30T08:35:31;1.23;;;0.43;;
71475;SDS011;59286;59.274;17.974;2022-10-30T08:37:57;1.35;;;0.50;;
71475;SDS011;59286;59.274;17.974;2022-10-30T08:40:24;1.33;;;0.40;;
71475;SDS011;59286;59.274;17.974;2022-10-30T08:42:54;1.65;;;0.60;;
71475;SDS011;59286;59.274;17.974;2022-10-30T08:45:21;0.95;;;0.40;;
71475;SDS011;59286;59.274;17.974;2022-10-30T08:47:54;1.13;;;0.40;;
71475;SDS011;59286;59.274;17.974;2022-10-30T08:50:21;2.75;;;0.40;;
71475;SDS011;59286;59.274;17.974;2022-10-30T08:52:46;2.65;;;0.52;;
71475;SDS011;59286;59.274;17.974;2022-10-30T08:55:12;0.98;;;0.30;;
71475;SDS011;59286;59.274;17.974;2022-10-30T08:57:37;1.58;;;0.47;;
71475;SDS011;59286;59.274;17.974;2022-10-30T09:00:03;1.63;;;0.40;;
71475;SDS011;59286;59.274;17.974;2022-10-30T09:02:29;1.27;;;0.40;;
71475;SDS011;59286;59.274;17.974;2022-10-30T09:04:55;0.75;;;0.20;;
71475;SDS011;59286;59.274;17.974;2022-10-30T09:07:20;1.23;;;0.40;;
71475;SDS011;59286;59.274;17.974;2022-10-30T09:09:49;0.90;;;0.40;;
71475;SDS011;59286;59.274;17.974;2022-10-30T09:12:14;1.58;;;0.40;;
71475;SDS011;59286;59.274;17.974;2022-10-30T09:14:40;1.17;;;0.45;;
71475;SDS011;59286;59.274;17.974;2022-10-30T09:17:06;2.70;;;0.50;;
71475;SDS011;59286;59.274;17.974;2022-10-30T09:19:31;4.20;;;0.47;;
71475;SDS011;59286;59.274;17.974;2022-10-30T09:21:59;3.13;;;0.55;;
71475;SDS011;59286;59.274;17.974;2022-10-30T09:24:25;1.25;;;0.30;;
71475;SDS011;59286;59.274;17.974;2022-10-30T09:26:50;1.42;;;0.40;;
71475;SDS011;59286;59.274;17.974;2022-10-30T09:29:16;0.95;;;0.40;;
71475;SDS011;59286;59.274;17.974;2022-10-30T09:31:41;1.02;;;0.45;;
71475;SDS011;59286;59.274;17.974;2022-10-30T09:34:07;1.33;;;0.32;;
71475;SDS011;59286;59.274;17.974;2022-10-30T09:36:32;1.15;;;0.30;;
71475;SDS011;59286;59.274;17.974;2022-10-30T09:38:57;0.65;;;0.30;;
71475;SDS011;59286;59.274;17.974;2022-10-30T09:53:30;0.43;;;0.20;;
71475;SDS011;59286;59.274;17.974;2022-10-30T09:56:17;1.55;;;0.43;;
71475;SDS011;59286;59.274;17.974;2022-10-30T10:07:01;1.52;;;0.43;;
71475;SDS011;59286;59.274;17.974;2022-10-30T10:09:37;1.25;;;0.43;;
71475;SDS011;59286;59.274;17.974;2022-10-30T10:12:06;3.10;;;0.40;;
71475;SDS011;59286;59.274;17.974;2022-10-30T10:14:40;0.98;;;0.50;;
71475;SDS011;59286;59.274;17.974;2022-10-30T10:17:10;0.93;;;0.30;;
71475;SDS011;59286;59.274;17.974;2022-10-30T10:19:39;3.58;;;0.50;;
71475;SDS011;59286;59.274;17.974;2022-10-30T10:22:19;2.42;;;0.30;;
71475;SDS011;59286;59.274;17.974;2022-10-30T10:24:45;0.80;;;0.30;;
71475;SDS011;59286;59.274;17.974;2022-10-30T10:27:22;3.55;;;0.40;;
71475;SDS011;59286;59.274;17.974;2022-10-30T10:30:21;1.15;;;0.50;;
71475;SDS011;59286;59.274;17.974;2022-10-30T10:49:25;2.17;;;0.50;;
71475;SDS011;59286;59.274;17.974;2022-10-30T10:52:09;0.75;;;0.28;;
71475;SDS011;59286;59.274;17.974;2022-10-30T10:57:28;3.45;;;0.38;;
71475;SDS011;59286;59.274;17.974;2022-10-30T10:59:59;4.10;;;0.50;;
71475;SDS011;59286;59.274;17.974;2022-10-30T11:05:37;0.75;;;0.40;;
71475;SDS011;59286;59.274;17.974;2022-10-30T11:08:12;0.80;;;0.38;;
71475;SDS011;59286;59.274;17.974;2022-10-30T11:10:43;2.22;;;0.32;;
71475;SDS011;59286;59.274;17.974;2022-10-30T11:13:12;1.17;;;0.38;;
71475;SDS011;59286;59.274;17.974;2022-10-30T11:18:26;1.90;;;0.50;;
71475;SDS011;59286;59.274;17.974;2022-10-30T11:20:56;0.98;;;0.40;;
71475;SDS011;59286;59.274;17.974;2022-10-30T11:23:36;1.35;;;0.40;;
71475;SDS011;59286;59.274;17.974;2022-10-30T11:28:43;3.63;;;0.40;;
71475;SDS011;59286;59.274;17.974;2022-10-30T11:31:28;2.25;;;0.45;;
71475;SDS011;59286;59.274;17.974;2022-10-30T11:36:49;1.73;;;0.30;;
71475;SDS011;59286;59.274;17.974;2022-10-30T11:39:20;2.80;;;0.40;;
71475;SDS011;59286;59.274;17.974;2022-10-30T11:41:59;2.95;;;0.40;;
71475;SDS011;59286;59.274;17.974;2022-10-30T11:44:44;0.90;;;0.22;;
71475;SDS011;59286;59.274;17.974;2022-10-30T11:47:12;1.23;;;0.35;;
71475;SDS011;59286;59.274;17.974;2022-10-30T11:49:51;0.88;;;0.32;;
71475;SDS011;59286;59.274;17.974;2022-10-30T11:52:20;1.20;;;0.40;;
71475;SDS011;59286;59.274;17.974;2022-10-30T11:54:48;3.13;;;0.50;;
71475;SDS011;59286;59.274;17.974;2022-10-30T11:57:22;2.50;;;0.55;;
71475;SDS011;59286;59.274;17.974;2022-10-30T11:59:55;1.38;;;0.47;;
71475;SDS011;59286;59.274;17.974;2022-10-30T12:02:25;1.50;;;0.40;;
71475;SDS011;59286;59.274;17.974;2022-10-30T12:04:52;2.47;;;0.50;;
71475;SDS011;59286;59.274;17.974;2022-10-30T12:07:23;2.33;;;0.40;;
71475;SDS011;59286;59.274;17.974;2022-10-30T12:09:53;1.23;;;0.35;;
71475;SDS011;59286;59.274;17.974;2022-10-30T12:12:20;1.48;;;0.40;;
71475;SDS011;59286;59.274;17.974;2022-10-30T12:14:46;1.25;;;0.50;;
71475;SDS011;59286;59.274;17.974;2022-10-30T12:17:13;1.05;;;0.40;;
71475;SDS011;59286;59.274;17.974;2022-10-30T12:19:44;0.95;;;0.60;;
71475;SDS011;59286;59.274;17.974;2022-10-30T12:22:11;0.60;;;0.25;;
71475;SDS011;59286;59.274;17.974;2022-10-30T12:24:49;2.35;;;0.40;;
71475;SDS011;59286;59.274;17.974;2022-10-30T12:27:15;1.52;;;0.47;;
71475;SDS011;59286;59.274;17.974;2022-10-30T12:32:57;1.20;;;0.30;;
71475;SDS011;59286;59.274;17.974;2022-10-30T12:38:24;4.18;;;0.90;;
71475;SDS011;59286;59.274;17.974;2022-10-30T12:43:28;2.90;;;1.10;;
71475;SDS011;59286;59.274;17.974;2022-10-30T12:46:04;1.55;;;0.60;;
71475;SDS011;59286;59.274;17.974;2022-10-30T12:48:49;1.10;;;0.38;;
71475;SDS011;59286;59.274;17.974;2022-10-30T12:51:25;0.85;;;0.30;;
71475;SDS011;59286;59.274;17.974;2022-10-30T12:54:02;0.73;;;0.40;;
71475;SDS011;59286;59.274;17.974;2022-10-30T12:56:50;1.88;;;0.40;;
71475;SDS011;59286;59.274;17.974;2022-10-30T12:59:33;2.17;;;0.40;;
71475;SDS011;59286;59.274;17.974;2022-10-30T13:05:53;1.00;;;0.30;;
71475;SDS011;59286;59.274;17.974;2022-10-30T13:11:04;1.67;;;0.40;;
71475;SDS011;59286;59.274;17.974;2022-10-30T13:13:37;0.63;;;0.35;;
71475;SDS011;59286;59.274;17.974;2022-10-30T13:16:17;0.65;;;0.40;;
71475;SDS011;59286;59.274;17.974;2022-10-30T13:18:47;1.77;;;0.47;;
71475;SDS011;59286;59.274;17.974;2022-10-30T13:23:51;1.42;;;0.50;;
71475;SDS011;59286;59.274;17.974;2022-10-30T13:32:04;0.90;;;0.25;;
71475;SDS011;59286;59.274;17.974;2022-10-30T13:34:55;1.50;;;0.40;;
71475;SDS011;59286;59.274;17.974;2022-10-30T13:38:05;1.27;;;0.30;;
71475;SDS011;59286;59.274;17.974;2022-10-30T13:43:27;1.83;;;0.40;;
71475;SDS011;59286;59.274;17.974;2022-10-30T13:48:52;1.77;;;0.35;;
71475;SDS011;59286;59.274;17.974;2022-10-30T13:51:41;1.40;;;0.60;;
71475;SDS011;59286;59.274;17.974;2022-10-30T13:56:47;1.67;;;0.45;;
71475;SDS011;59286;59.274;17.974;2022-10-30T14:07:35;1.75;;;0.40;;
71475;SDS011;59286;59.274;17.974;2022-10-30T14:13:13;1.65;;;0.60;;
71475;SDS011;59286;59.274;17.974;2022-10-30T14:15:43;1.13;;;0.50;;
71475;SDS011;59286;59.274;17.974;2022-10-30T14:20:38;2.42;;;0.75;;
71475;SDS011;59286;59.274;17.974;2022-10-30T14:23:15;2.15;;;0.52;;
71475;SDS011;59286;59.274;17.974;2022-10-30T14:28:26;1.95;;;0.90;;
71475;SDS011;59286;59.274;17.974;2022-10-30T14:31:01;2.00;;;0.80;;
71475;SDS011;59286;59.274;17.974;2022-10-30T14:38:50;1.27;;;0.65;;
71475;SDS011;59286;59.274;17.974;2022-10-30T14:41:29;4.28;;;0.50;;
71475;SDS011;59286;59.274;17.974;2022-10-30T14:55:28;4.72;;;1.00;;
71475;SDS011;59286;59.274;17.974;2022-10-30T14:58:15;1.65;;;0.65;;
71475;SDS011;59286;59.274;17.974;2022-10-30T15:00:47;3.50;;;0.73;;
71475;SDS011;59286;59.274;17.974;2022-10-30T15:06:12;2.10;;;0.80;;
71475;SDS011;59286;59.274;17.974;2022-10-30T15:08:56;3.10;;;1.35;;
71475;SDS011;59286;59.274;17.974;2022-10-30T15:13:54;5.78;;;1.80;;
71475;SDS011;59286;59.274;17.974;2022-10-30T15:16:23;5.60;;;1.90;;
71475;SDS011;59286;59.274;17.974;2022-10-30T15:18:56;2.92;;;2.10;;
71475;SDS011;59286;59.274;17.974;2022-10-30T15:21:26;4.70;;;1.98;;
71475;SDS011;59286;59.274;17.974;2022-10-30T15:23:57;5.80;;;2.20;;
71475;SDS011;59286;59.274;17.974;2022-10-30T15:26:26;2.78;;;1.83;;
71475;SDS011;59286;59.274;17.974;2022-10-30T15:28:57;4.03;;;1.70;;
71475;SDS011;59286;59.274;17.974;2022-10-30T15:31:23;1.80;;;1.25;;
71475;SDS011;59286;59.274;17.974;2022-10-30T15:33:49;5.55;;;1.50;;
71475;SDS011;59286;59.274;17.974;2022-10-30T15:41:46;2.33;;;1.15;;
71475;SDS011;59286;59.274;17.974;2022-10-30T15:44:15;1.83;;;1.27;;
71475;SDS011;59286;59.274;17.974;2022-10-30T15:46:47;2.42;;;1.27;;
71475;SDS011;59286;59.274;17.974;2022-10-30T15:49:19;2.75;;;1.60;;
71475;SDS011;59286;59.274;17.974;2022-10-30T15:51:52;1.85;;;1.30;;
71475;SDS011;59286;59.274;17.974;2022-10-30T15:54:18;4.47;;;1.20;;
71475;SDS011;59286;59.274;17.974;2022-10-30T15:56:45;2.10;;;1.30;;
71475;SDS011;59286;59.274;17.974;2022-10-30T16:02:18;3.97;;;2.20;;
71475;SDS011;59286;59.274;17.974;2022-10-30T16:04:45;4.95;;;2.65;;
71475;SDS011;59286;59.274;17.974;2022-10-30T16:07:30;5.47;;;2.20;;
71475;SDS011;59286;59.274;17.974;2022-10-30T16:09:59;4.15;;;2.17;;
71475;SDS011;59286;59.274;17.974;2022-10-30T16:12:28;4.30;;;2.13;;
71475;SDS011;59286;59.274;17.974;2022-10-30T16:14:55;4.47;;;2.40;;
71475;SDS011;59286;59.274;17.974;2022-10-30T16:17:22;4.70;;;2.08;;
71475;SDS011;59286;59.274;17.974;2022-10-30T16:19:50;3.22;;;2.40;;
71475;SDS011;59286;59.274;17.974;2022-10-30T16:22:28;5.65;;;2.25;;
71475;SDS011;59286;59.274;17.974;2022-10-30T16:24:57;5.00;;;2.78;;
71475;SDS011;59286;59.274;17.974;2022-10-30T16:27:24;5.20;;;3.08;;
71475;SDS011;59286;59.274;17.974;2022-10-30T16:29:54;8.48;;;4.70;;
71475;SDS011;59286;59.274;17.974;2022-10-30T16:32:26;5.55;;;3.50;;
71475;SDS011;59286;59.274;17.974;2022-10-30T16:34:58;6.28;;;3.47;;
71475;SDS011;59286;59.274;17.974;2022-10-30T16:37:27;9.02;;;5.10;;
71475;SDS011;59286;59.274;17.974;2022-10-30T16:39:58;8.68;;;4.57;;
71475;SDS011;59286;59.274;17.974;2022-10-30T16:42:29;18.98;;;11.05;;
71475;SDS011;59286;59.274;17.974;2022-10-30T16:47:39;16.50;;;10.15;;
71475;SDS011;59286;59.274;17.974;2022-10-30T16:50:09;17.48;;;11.13;;
71475;SDS011;59286;59.274;17.974;2022-10-30T16:52:38;19.85;;;11.30;;
71475;SDS011;59286;59.274;17.974;2022-10-30T16:55:07;13.57;;;8.20;;
71475;SDS011;59286;59.274;17.974;2022-10-30T16:57:42;13.82;;;8.30;;
71475;SDS011;59286;59.274;17.974;2022-10-30T17:00:19;17.88;;;10.60;;
71475;SDS011;59286;59.274;17.974;2022-10-30T17:02:49;21.05;;;11.75;;
71475;SDS011;59286;59.274;17.974;2022-10-30T17:05:22;25.95;;;12.80;;
71475;SDS011;59286;59.274;17.974;2022-10-30T17:07:54;20.45;;;10.60;;
71475;SDS011;59286;59.274;17.974;2022-10-30T17:10:31;37.03;;;25.05;;
71475;SDS011;59286;59.274;17.974;2022-10-30T17:18:35;60.90;;;41.28;;
71475;SDS011;59286;59.274;17.974;2022-10-30T17:21:05;47.85;;;28.20;;
71475;SDS011;59286;59.274;17.974;2022-10-30T17:23:34;29.48;;;17.35;;
71475;SDS011;59286;59.274;17.974;2022-10-30T17:26:06;25.60;;;13.18;;
71475;SDS011;59286;59.274;17.974;2022-10-30T17:28:34;17.83;;;11.27;;
71475;SDS011;59286;59.274;17.974;2022-10-30T17:34:18;15.77;;;8.75;;
71475;SDS011;59286;59.274;17.974;2022-10-30T17:36:45;15.55;;;9.40;;
71475;SDS011;59286;59.274;17.974;2022-10-30T17:39:11;17.23;;;9.98;;
71475;SDS011;59286;59.274;17.974;2022-10-30T17:41:37;22.77;;;9.85;;